Time;durP1;ratioP1;P1;durP2;ratioP2;P2;SDS_P1;SDS_P2;PMS_P1;PMS_P2;Temp;Humidity;BMP_temperature;BMP_pressure;BME280_temperature;BME280_humidity;BME280_pressure;Samples;Min_cycle;Max_cycle;Signal;HPM_P1;HPM_P2
2023/06/25 00:00:00;;;;;;;12.15;7.13;;;;;;;;;;5037688;28;20728;-76
2023/06/25 00:02:25;;;;;;;12.55;7.30;;;;;;;;;;5005506;28;20232;-77
2023/06/25 00:04:51;;;;;;;15.82;6.63;;;;;;;;;;5034828;28;20255;-76
2023/06/25 00:07:17;;;;;;;14.07;6.75;;;;;;;;;;5033303;28;20221;-76
2023/06/25 00:09:50;;;;;;;15.10;6.85;;;;;;;;;;5031904;28;20625;-76
2023/06/25 00:12:16;;;;;;;14.40;7.30;;;;;;;;;;5017322;28;20599;-76
2023/06/25 00:14:41;;;;;;;13.30;7.47;;;;;;;;;;5020305;28;20236;-76
2023/06/25 00:17:06;;;;;;;14.35;7.20;;;;;;;;;;5039226;28;20237;-76
2023/06/25 00:19:31;;;;;;;14.27;7.47;;;;;;;;;;5034107;28;20233;-76
2023/06/25 00:21:57;;;;;;;14.05;7.32;;;;;;;;;;5036246;28;20217;-76
2023/06/25 00:24:22;;;;;;;14.02;7.32;;;;;;;;;;5017805;28;20317;-76
2023/06/25 00:26:47;;;;;;;12.30;6.93;;;;;;;;;;5024349;28;20275;-76
2023/06/25 00:29:13;;;;;;;12.90;7.28;;;;;;;;;;5015170;28;20224;-76
2023/06/25 00:31:39;;;;;;;12.27;7.22;;;;;;;;;;5036266;28;20226;-76
2023/06/25 00:34:04;;;;;;;11.38;7.07;;;;;;;;;;5030896;28;20213;-76
2023/06/25 00:36:36;;;;;;;11.82;7.18;;;;;;;;;;5033173;28;20222;-76
2023/06/25 00:39:03;;;;;;;12.85;7.18;;;;;;;;;;5042952;28;20213;-77
2023/06/25 00:41:28;;;;;;;15.63;7.40;;;;;;;;;;5031285;28;20221;-76
2023/06/25 00:43:54;;;;;;;11.43;6.78;;;;;;;;;;5015810;28;20225;-78
2023/06/25 00:46:23;;;;;;;13.20;7.03;;;;;;;;;;5016736;28;20222;-77
2023/06/25 00:48:48;;;;;;;12.50;6.30;;;;;;;;;;5024537;28;20221;-76
2023/06/25 00:51:14;;;;;;;13.48;6.30;;;;;;;;;;5032130;28;20222;-76
2023/06/25 00:53:39;;;;;;;12.75;6.53;;;;;;;;;;5033028;28;20226;-77
2023/06/25 00:56:05;;;;;;;12.25;6.60;;;;;;;;;;5032989;28;21002;-77
2023/06/25 00:58:30;;;;;;;11.45;6.40;;;;;;;;;;5023627;28;20236;-75
2023/06/25 01:00:56;;;;;;;14.88;6.95;;;;;;;;;;5036031;28;20773;-77
2023/06/25 01:03:28;;;;;;;11.27;6.40;;;;;;;;;;5029910;28;20777;-78
2023/06/25 01:06:08;;;;;;;13.27;6.68;;;;;;;;;;5032598;28;20714;-78
2023/06/25 01:08:35;;;;;;;13.20;6.35;;;;;;;;;;5030262;28;20222;-78
2023/06/25 01:11:02;;;;;;;12.43;6.35;;;;;;;;;;5030142;28;20656;-77
2023/06/25 01:13:27;;;;;;;12.50;6.95;;;;;;;;;;5041104;28;20316;-77
2023/06/25 01:15:53;;;;;;;11.90;6.53;;;;;;;;;;5033347;28;20332;-79
2023/06/25 01:18:18;;;;;;;12.40;6.53;;;;;;;;;;5016827;28;20719;-78
2023/06/25 01:20:43;;;;;;;12.35;6.10;;;;;;;;;;5033104;28;20296;-76
2023/06/25 01:23:10;;;;;;;11.02;5.90;;;;;;;;;;5031498;28;20241;-78
2023/06/25 01:25:36;;;;;;;12.25;6.05;;;;;;;;;;5033517;28;20778;-79
2023/06/25 01:28:01;;;;;;;13.75;5.90;;;;;;;;;;5030206;28;20257;-79
2023/06/25 01:30:31;;;;;;;11.75;6.10;;;;;;;;;;5029962;28;20229;-79
2023/06/25 01:32:56;;;;;;;13.35;5.88;;;;;;;;;;5045303;28;20213;-80
2023/06/25 01:35:22;;;;;;;13.35;6.18;;;;;;;;;;5035950;28;20664;-79
2023/06/25 01:37:47;;;;;;;15.02;6.05;;;;;;;;;;5039541;28;20228;-79
2023/06/25 01:40:12;;;;;;;11.95;5.93;;;;;;;;;;5035599;28;20596;-78
2023/06/25 01:42:38;;;;;;;12.48;6.00;;;;;;;;;;5034187;28;20309;-71
2023/06/25 01:45:03;;;;;;;21.02;5.97;;;;;;;;;;5033895;28;20606;-71
2023/06/25 01:47:29;;;;;;;12.57;6.07;;;;;;;;;;5023691;28;20666;-72
2023/06/25 01:49:54;;;;;;;15.80;5.90;;;;;;;;;;5036665;28;20321;-72
2023/06/25 01:52:20;;;;;;;13.30;5.85;;;;;;;;;;5037656;28;20584;-72
2023/06/25 01:54:46;;;;;;;12.75;5.55;;;;;;;;;;5036066;28;20249;-71
2023/06/25 01:57:11;;;;;;;13.60;5.77;;;;;;;;;;5039440;28;20224;-82
2023/06/25 01:59:36;;;;;;;12.48;5.80;;;;;;;;;;5046221;28;20289;-79
2023/06/25 02:02:02;;;;;;;14.57;5.90;;;;;;;;;;5047087;28;20233;-80
2023/06/25 02:04:27;;;;;;;13.80;6.07;;;;;;;;;;5020986;28;20230;-82
2023/06/25 02:06:53;;;;;;;17.20;7.43;;;;;;;;;;5023988;28;20209;-82
2023/06/25 02:09:18;;;;;;;15.18;6.85;;;;;;;;;;5045698;28;20581;-81
2023/06/25 02:11:44;;;;;;;14.80;7.18;;;;;;;;;;5036945;28;20286;-81
2023/06/25 02:14:09;;;;;;;16.85;7.88;;;;;;;;;;5055738;28;20218;-81
2023/06/25 02:16:34;;;;;;;16.52;7.72;;;;;;;;;;5025943;28;20301;-83
2023/06/25 02:19:00;;;;;;;17.03;8.13;;;;;;;;;;5040179;28;20881;-80
2023/06/25 02:21:25;;;;;;;18.05;8.57;;;;;;;;;;5035112;28;20620;-84
2023/06/25 02:23:50;;;;;;;16.75;8.50;;;;;;;;;;5036766;28;20622;-80
2023/06/25 02:26:15;;;;;;;15.95;9.13;;;;;;;;;;5035773;28;20225;-81
2023/06/25 02:28:41;;;;;;;18.25;9.40;;;;;;;;;;5021820;28;20367;-82
2023/06/25 02:31:06;;;;;;;19.50;9.55;;;;;;;;;;5036866;28;20240;-81
2023/06/25 02:33:31;;;;;;;19.83;9.63;;;;;;;;;;5035535;28;20229;-81
2023/06/25 02:35:56;;;;;;;17.75;9.02;;;;;;;;;;5009449;28;20694;-79
2023/06/25 02:38:22;;;;;;;19.42;9.63;;;;;;;;;;5005274;28;20206;-80
2023/06/25 02:40:47;;;;;;;21.02;9.45;;;;;;;;;;5018552;28;20286;-78
2023/06/25 02:43:12;;;;;;;19.15;9.48;;;;;;;;;;5014086;28;20210;-78
2023/06/25 02:45:38;;;;;;;18.73;9.00;;;;;;;;;;5021044;28;20595;-81
2023/06/25 02:48:03;;;;;;;19.08;9.07;;;;;;;;;;5019433;28;20225;-82
2023/06/25 02:50:28;;;;;;;20.80;9.23;;;;;;;;;;5020070;28;20233;-78
2023/06/25 02:52:54;;;;;;;24.63;9.60;;;;;;;;;;5005948;28;20224;-81
2023/06/25 02:55:19;;;;;;;17.65;8.90;;;;;;;;;;5019047;28;20229;-80
2023/06/25 02:57:44;;;;;;;17.87;9.03;;;;;;;;;;5005301;28;20234;-78
2023/06/25 03:00:10;;;;;;;20.15;9.20;;;;;;;;;;5021640;28;20676;-81
2023/06/25 03:02:35;;;;;;;18.38;8.77;;;;;;;;;;5017733;28;20225;-81
2023/06/25 03:05:00;;;;;;;19.42;9.35;;;;;;;;;;5020404;28;20781;-80
2023/06/25 03:07:26;;;;;;;17.92;9.02;;;;;;;;;;5003728;28;20210;-79
2023/06/25 03:09:51;;;;;;;18.80;8.53;;;;;;;;;;5034111;28;20213;-81
2023/06/25 03:12:16;;;;;;;18.00;9.03;;;;;;;;;;5002061;28;20305;-77
2023/06/25 03:14:42;;;;;;;17.45;8.57;;;;;;;;;;5014339;28;20217;-78
2023/06/25 03:17:07;;;;;;;18.50;8.68;;;;;;;;;;5034199;28;20221;-81
2023/06/25 03:19:35;;;;;;;17.85;8.30;;;;;;;;;;5014398;28;20230;-81
2023/06/25 03:22:01;;;;;;;14.98;8.00;;;;;;;;;;5017238;28;20221;-81
2023/06/25 03:24:26;;;;;;;18.40;8.68;;;;;;;;;;5017627;28;20222;-80
2023/06/25 03:26:51;;;;;;;16.75;8.50;;;;;;;;;;5024034;28;20241;-81
2023/06/25 03:29:17;;;;;;;17.55;8.82;;;;;;;;;;5020875;28;21029;-81
2023/06/25 03:31:42;;;;;;;19.90;8.85;;;;;;;;;;5016040;28;20229;-80
2023/06/25 03:34:08;;;;;;;18.00;8.47;;;;;;;;;;5035902;28;20308;-77
2023/06/25 03:36:33;;;;;;;20.50;8.73;;;;;;;;;;5037638;28;20226;-77
2023/06/25 03:38:58;;;;;;;21.25;8.80;;;;;;;;;;5039283;28;20755;-76
2023/06/25 03:41:24;;;;;;;23.05;9.05;;;;;;;;;;5034989;28;20220;-75
2023/06/25 03:43:50;;;;;;;20.23;8.60;;;;;;;;;;5036547;28;20869;-76
2023/06/25 03:46:15;;;;;;;21.83;9.73;;;;;;;;;;5014325;28;20223;-76
2023/06/25 03:48:41;;;;;;;19.57;9.03;;;;;;;;;;5008769;28;20229;-76
2023/06/25 03:51:06;;;;;;;16.70;8.53;;;;;;;;;;5032804;28;20217;-77
2023/06/25 03:53:31;;;;;;;18.92;9.40;;;;;;;;;;5037399;28;20257;-76
2023/06/25 03:55:56;;;;;;;17.48;8.77;;;;;;;;;;5025876;28;20291;-77
2023/06/25 03:58:22;;;;;;;18.55;9.07;;;;;;;;;;5037338;28;20224;-76
2023/06/25 04:00:47;;;;;;;16.58;8.63;;;;;;;;;;5033837;28;20698;-77
2023/06/25 04:03:12;;;;;;;18.52;9.25;;;;;;;;;;5038162;28;20232;-77
2023/06/25 04:05:37;;;;;;;19.40;9.25;;;;;;;;;;5031326;28;20233;-76
2023/06/25 04:08:03;;;;;;;21.85;9.32;;;;;;;;;;5034696;28;20228;-76
2023/06/25 04:10:28;;;;;;;18.13;8.65;;;;;;;;;;5025076;28;20222;-75
2023/06/25 04:12:54;;;;;;;15.32;8.35;;;;;;;;;;5026426;28;20816;-76
2023/06/25 04:15:19;;;;;;;17.67;8.90;;;;;;;;;;5037939;28;20214;-75
2023/06/25 04:17:46;;;;;;;22.40;9.40;;;;;;;;;;5044139;28;20648;-75
2023/06/25 04:20:11;;;;;;;19.63;8.83;;;;;;;;;;5031623;28;20233;-75
2023/06/25 04:22:37;;;;;;;18.80;9.70;;;;;;;;;;5034574;28;20233;-75
2023/06/25 04:25:02;;;;;;;18.90;9.18;;;;;;;;;;5031279;28;20673;-75
2023/06/25 04:27:28;;;;;;;20.70;9.45;;;;;;;;;;5020916;28;20226;-76
2023/06/25 04:29:53;;;;;;;15.13;8.55;;;;;;;;;;5036687;28;21085;-75
2023/06/25 04:32:18;;;;;;;18.23;9.20;;;;;;;;;;5040362;28;20250;-75
2023/06/25 04:34:44;;;;;;;17.93;9.20;;;;;;;;;;5035788;28;20225;-75
2023/06/25 04:37:09;;;;;;;19.63;9.43;;;;;;;;;;5024604;28;20264;-75
2023/06/25 04:39:34;;;;;;;16.92;9.18;;;;;;;;;;5036757;28;20225;-74
2023/06/25 04:42:01;;;;;;;17.07;9.00;;;;;;;;;;5031963;28;20245;-74
2023/06/25 04:44:26;;;;;;;18.48;9.35;;;;;;;;;;5031188;28;20222;-74
2023/06/25 04:46:51;;;;;;;20.70;9.25;;;;;;;;;;5033396;28;20232;-75
2023/06/25 04:49:16;;;;;;;16.92;8.90;;;;;;;;;;5028720;28;20229;-74
2023/06/25 04:51:45;;;;;;;15.95;8.00;;;;;;;;;;5013866;28;20691;-74
2023/06/25 04:54:10;;;;;;;20.42;8.27;;;;;;;;;;5025283;28;20674;-74
2023/06/25 04:56:36;;;;;;;15.73;8.10;;;;;;;;;;5021481;28;20331;-75
2023/06/25 04:59:01;;;;;;;16.63;8.27;;;;;;;;;;5034926;28;20236;-75
2023/06/25 05:01:26;;;;;;;18.55;8.85;;;;;;;;;;5030858;28;20773;-75
2023/06/25 05:03:51;;;;;;;15.27;8.37;;;;;;;;;;5031499;28;20222;-74
2023/06/25 05:06:17;;;;;;;15.90;8.47;;;;;;;;;;5029030;28;20231;-74
2023/06/25 05:08:42;;;;;;;18.00;8.47;;;;;;;;;;5032576;28;20236;-74
2023/06/25 05:11:07;;;;;;;16.10;8.33;;;;;;;;;;5032597;28;20230;-75
2023/06/25 05:13:32;;;;;;;14.20;7.78;;;;;;;;;;5029667;28;20228;-75
2023/06/25 05:15:58;;;;;;;22.73;10.48;;;;;;;;;;5033428;28;20725;-75
2023/06/25 05:18:23;;;;;;;75.27;31.20;;;;;;;;;;5032757;28;20228;-74
2023/06/25 05:20:48;;;;;;;59.25;24.90;;;;;;;;;;5012204;28;20234;-75
2023/06/25 05:23:14;;;;;;;20.75;10.20;;;;;;;;;;5028467;28;20234;-74
2023/06/25 05:25:39;;;;;;;17.55;8.27;;;;;;;;;;5033846;28;20222;-75
2023/06/25 05:28:04;;;;;;;18.10;8.98;;;;;;;;;;5024714;28;20237;-75
2023/06/25 05:30:32;;;;;;;21.13;10.00;;;;;;;;;;5030877;28;20737;-74
2023/06/25 05:32:57;;;;;;;23.58;11.05;;;;;;;;;;5042819;28;20243;-74
2023/06/25 05:35:23;;;;;;;26.20;11.27;;;;;;;;;;5033355;28;20252;-75
2023/06/25 05:37:48;;;;;;;30.58;12.45;;;;;;;;;;5034393;28;20221;-76
2023/06/25 05:40:14;;;;;;;23.17;10.38;;;;;;;;;;5030276;28;20619;-75
2023/06/25 05:42:39;;;;;;;16.17;8.48;;;;;;;;;;5034473;28;20218;-76
2023/06/25 05:45:05;;;;;;;36.03;15.35;;;;;;;;;;5031265;28;20214;-76
2023/06/25 05:47:30;;;;;;;80.03;27.75;;;;;;;;;;5029327;28;20303;-74
2023/06/25 05:49:55;;;;;;;50.95;19.25;;;;;;;;;;5029387;28;20620;-75
2023/06/25 05:52:21;;;;;;;63.45;21.58;;;;;;;;;;5034668;28;20225;-75
2023/06/25 05:54:46;;;;;;;119.93;39.35;;;;;;;;;;5039495;28;20244;-75
2023/06/25 05:57:12;;;;;;;16.55;8.68;;;;;;;;;;5031569;28;20234;-75
2023/06/25 05:59:37;;;;;;;15.68;7.55;;;;;;;;;;5023962;28;20714;-74
2023/06/25 06:02:02;;;;;;;13.57;7.43;;;;;;;;;;5029032;28;20214;-74
2023/06/25 06:04:28;;;;;;;15.68;7.10;;;;;;;;;;5033899;28;20217;-74
2023/06/25 06:06:53;;;;;;;13.25;6.43;;;;;;;;;;5031920;28;20226;-74
2023/06/25 06:09:18;;;;;;;11.60;6.70;;;;;;;;;;5019153;28;20666;-74
2023/06/25 06:11:44;;;;;;;22.55;7.40;;;;;;;;;;5021227;28;20666;-75
2023/06/25 06:14:09;;;;;;;15.48;7.03;;;;;;;;;;5023487;28;20292;-75
2023/06/25 06:16:34;;;;;;;11.20;6.78;;;;;;;;;;5026737;28;20675;-74
2023/06/25 06:19:00;;;;;;;11.10;6.55;;;;;;;;;;5034708;28;20225;-74
2023/06/25 06:21:25;;;;;;;12.18;7.03;;;;;;;;;;5030579;28;20221;-75
2023/06/25 06:23:52;;;;;;;12.40;6.82;;;;;;;;;;5035620;28;20305;-74
2023/06/25 06:26:17;;;;;;;10.40;6.30;;;;;;;;;;5032924;28;20236;-74
2023/06/25 06:28:43;;;;;;;12.82;6.82;;;;;;;;;;5017276;28;20813;-76
2023/06/25 06:31:08;;;;;;;12.90;6.80;;;;;;;;;;5040549;28;20276;-75
2023/06/25 06:33:34;;;;;;;11.32;6.75;;;;;;;;;;5029062;28;20234;-75
2023/06/25 06:35:59;;;;;;;10.77;6.13;;;;;;;;;;5015355;28;20214;-77
2023/06/25 06:38:24;;;;;;;12.95;6.47;;;;;;;;;;5029557;28;20229;-76
2023/06/25 06:40:49;;;;;;;14.05;6.45;;;;;;;;;;5014111;28;20977;-76
2023/06/25 06:43:17;;;;;;;10.60;5.97;;;;;;;;;;5022904;28;20225;-76
2023/06/25 06:45:43;;;;;;;11.25;6.18;;;;;;;;;;5016422;28;20707;-76
2023/06/25 06:48:09;;;;;;;14.07;6.60;;;;;;;;;;4998247;28;20282;-76
2023/06/25 06:50:34;;;;;;;11.38;6.50;;;;;;;;;;5002377;28;20229;-76
2023/06/25 06:52:59;;;;;;;11.25;6.68;;;;;;;;;;5021415;28;20213;-76
2023/06/25 06:55:24;;;;;;;13.30;6.32;;;;;;;;;;5014932;28;20663;-75
2023/06/25 06:57:50;;;;;;;11.35;6.25;;;;;;;;;;5006447;28;20220;-75
2023/06/25 07:00:17;;;;;;;11.60;6.40;;;;;;;;;;5001300;28;20308;-75
2023/06/25 07:02:43;;;;;;;12.43;7.10;;;;;;;;;;5003459;28;20698;-76
2023/06/25 07:05:08;;;;;;;13.32;6.65;;;;;;;;;;5034137;28;20284;-76
2023/06/25 07:07:33;;;;;;;10.32;6.38;;;;;;;;;;5007301;28;20225;-76
2023/06/25 07:09:59;;;;;;;11.48;6.32;;;;;;;;;;5020168;28;20222;-76
2023/06/25 07:12:24;;;;;;;12.82;6.10;;;;;;;;;;5018038;28;20271;-76
2023/06/25 07:14:49;;;;;;;9.13;5.60;;;;;;;;;;5017067;28;20233;-76
2023/06/25 07:17:15;;;;;;;9.63;5.15;;;;;;;;;;5038282;28;20217;-76
2023/06/25 07:19:40;;;;;;;9.18;5.72;;;;;;;;;;5020516;28;20732;-76
2023/06/25 07:22:05;;;;;;;9.85;5.60;;;;;;;;;;5017306;28;20217;-76
2023/06/25 07:24:31;;;;;;;12.60;5.97;;;;;;;;;;5018429;28;20699;-76
2023/06/25 07:26:56;;;;;;;9.25;5.80;;;;;;;;;;4992261;28;20282;-77
2023/06/25 07:29:21;;;;;;;7.18;4.63;;;;;;;;;;4997434;28;21312;-76
2023/06/25 07:31:46;;;;;;;9.30;5.15;;;;;;;;;;5037729;28;20224;-76
2023/06/25 07:34:12;;;;;;;9.98;5.80;;;;;;;;;;5013840;28;20712;-76
2023/06/25 07:36:37;;;;;;;9.40;5.38;;;;;;;;;;4998270;28;20284;-76
2023/06/25 07:39:03;;;;;;;10.07;6.10;;;;;;;;;;5016979;28;20754;-76
2023/06/25 07:41:28;;;;;;;11.20;6.43;;;;;;;;;;5002964;28;20225;-77
2023/06/25 07:43:55;;;;;;;14.85;6.88;;;;;;;;;;5019435;28;20341;-77
2023/06/25 07:46:20;;;;;;;10.93;6.78;;;;;;;;;;5024608;28;20213;-76
2023/06/25 07:48:45;;;;;;;13.93;6.70;;;;;;;;;;5028368;28;20229;-77
2023/06/25 07:51:11;;;;;;;10.48;6.50;;;;;;;;;;5013265;28;20218;-77
2023/06/25 07:53:36;;;;;;;9.85;6.30;;;;;;;;;;5003977;28;20236;-77
2023/06/25 07:56:01;;;;;;;10.95;6.22;;;;;;;;;;5000976;28;20257;-76
2023/06/25 07:58:27;;;;;;;11.93;6.13;;;;;;;;;;5022949;28;20257;-76
2023/06/25 08:00:52;;;;;;;9.45;6.20;;;;;;;;;;5018653;28;20230;-76
2023/06/25 08:03:17;;;;;;;10.27;6.38;;;;;;;;;;5003019;28;20230;-76
2023/06/25 08:05:42;;;;;;;14.30;6.80;;;;;;;;;;5013075;28;23390;-78
2023/06/25 08:08:08;;;;;;;12.25;6.60;;;;;;;;;;5006054;28;20223;-76
2023/06/25 08:10:33;;;;;;;15.40;6.90;;;;;;;;;;5005214;28;20792;-77
2023/06/25 08:12:58;;;;;;;11.88;7.15;;;;;;;;;;5006963;28;20277;-77
2023/06/25 08:15:24;;;;;;;11.23;6.53;;;;;;;;;;5016157;28;20260;-76
2023/06/25 08:17:49;;;;;;;8.23;5.82;;;;;;;;;;5021935;28;20234;-77
2023/06/25 08:20:14;;;;;;;10.77;6.07;;;;;;;;;;5014267;28;20242;-74
2023/06/25 08:22:39;;;;;;;8.63;5.70;;;;;;;;;;5008576;28;20226;-74
2023/06/25 08:25:11;;;;;;;9.13;5.88;;;;;;;;;;5010886;28;20223;-73
2023/06/25 08:27:36;;;;;;;7.20;5.40;;;;;;;;;;4987127;28;20243;-74
2023/06/25 08:30:01;;;;;;;7.10;4.82;;;;;;;;;;4997894;28;20238;-73
2023/06/25 08:32:27;;;;;;;7.15;4.53;;;;;;;;;;4993326;28;20234;-73
2023/06/25 08:34:52;;;;;;;6.47;4.75;;;;;;;;;;4991148;28;20233;-74
2023/06/25 08:37:17;;;;;;;7.13;4.90;;;;;;;;;;4989710;28;20292;-72
2023/06/25 08:39:43;;;;;;;7.20;4.65;;;;;;;;;;4991512;28;20246;-72
2023/06/25 08:42:08;;;;;;;6.97;4.32;;;;;;;;;;4993540;28;20238;-72
2023/06/25 08:44:33;;;;;;;6.90;4.47;;;;;;;;;;4996008;28;20276;-73
2023/06/25 08:46:59;;;;;;;8.98;4.90;;;;;;;;;;4989973;28;20622;-70
2023/06/25 08:49:25;;;;;;;5.35;4.00;;;;;;;;;;4990359;28;20225;-71
2023/06/25 08:51:54;;;;;;;6.53;4.10;;;;;;;;;;4989693;28;20239;-71
2023/06/25 08:54:19;;;;;;;5.78;4.20;;;;;;;;;;4974295;28;20222;-70
2023/06/25 08:56:44;;;;;;;5.70;4.20;;;;;;;;;;4978377;28;20222;-69
2023/06/25 08:59:09;;;;;;;6.70;4.55;;;;;;;;;;4979053;28;20219;-70
2023/06/25 09:01:35;;;;;;;7.28;4.50;;;;;;;;;;5001906;28;20231;-70
2023/06/25 09:04:00;;;;;;;6.75;4.35;;;;;;;;;;4998490;28;20292;-71
2023/06/25 09:06:26;;;;;;;6.55;4.53;;;;;;;;;;4988384;28;20219;-71
2023/06/25 09:08:51;;;;;;;5.63;4.43;;;;;;;;;;4974048;28;20223;-74
2023/06/25 09:11:17;;;;;;;5.55;4.10;;;;;;;;;;4989976;28;20285;-73
2023/06/25 09:13:42;;;;;;;7.20;4.28;;;;;;;;;;4994153;28;20264;-73
2023/06/25 09:16:08;;;;;;;6.07;4.32;;;;;;;;;;4987408;28;20223;-75
2023/06/25 09:18:33;;;;;;;6.50;4.60;;;;;;;;;;4974301;28;20226;-75
2023/06/25 09:21:06;;;;;;;5.53;4.30;;;;;;;;;;4970380;28;20318;-75
2023/06/25 09:23:31;;;;;;;9.07;4.47;;;;;;;;;;4976597;28;20227;-75
2023/06/25 09:25:57;;;;;;;7.93;4.57;;;;;;;;;;4995396;28;20293;-76
2023/06/25 09:28:22;;;;;;;7.43;4.50;;;;;;;;;;5026735;28;20226;-74
2023/06/25 09:30:47;;;;;;;7.40;4.95;;;;;;;;;;5011223;28;20232;-77
2023/06/25 09:33:13;;;;;;;7.22;4.63;;;;;;;;;;5011786;28;20236;-75
2023/06/25 09:35:38;;;;;;;6.88;4.72;;;;;;;;;;5004526;28;20315;-76
2023/06/25 09:38:03;;;;;;;6.97;4.63;;;;;;;;;;5014364;28;20245;-76
2023/06/25 09:40:29;;;;;;;8.65;4.53;;;;;;;;;;5017561;28;20616;-75
2023/06/25 09:42:55;;;;;;;6.97;4.30;;;;;;;;;;5005561;28;20206;-74
2023/06/25 09:45:21;;;;;;;7.47;4.00;;;;;;;;;;5034419;28;20225;-73
2023/06/25 09:47:47;;;;;;;7.45;4.47;;;;;;;;;;5031482;28;20233;-74
2023/06/25 09:50:35;;;;;;;5.97;4.07;;;;;;;;;;5000899;28;20221;-74
2023/06/25 09:53:02;;;;;;;7.55;4.68;;;;;;;;;;5026816;28;20222;-75
2023/06/25 09:55:27;;;;;;;8.43;4.43;;;;;;;;;;5019806;28;20225;-73
2023/06/25 09:57:53;;;;;;;5.00;4.07;;;;;;;;;;5014696;28;20218;-72
2023/06/25 10:00:19;;;;;;;7.38;4.47;;;;;;;;;;5002617;28;20229;-72
2023/06/25 10:02:44;;;;;;;6.13;4.43;;;;;;;;;;5000711;28;20224;-73
2023/06/25 10:05:10;;;;;;;7.32;4.72;;;;;;;;;;4997085;28;20699;-72
2023/06/25 10:07:35;;;;;;;6.45;4.90;;;;;;;;;;5010636;28;20880;-73
2023/06/25 10:10:01;;;;;;;8.65;5.00;;;;;;;;;;5027904;28;20229;-74
2023/06/25 10:12:26;;;;;;;7.45;5.05;;;;;;;;;;5027877;28;20218;-72
2023/06/25 10:14:52;;;;;;;9.05;5.55;;;;;;;;;;5001193;28;20276;-73
2023/06/25 10:17:19;;;;;;;6.68;4.75;;;;;;;;;;5003050;28;20230;-72
2023/06/25 10:19:51;;;;;;;9.43;4.95;;;;;;;;;;5001128;28;20234;-73
2023/06/25 10:22:20;;;;;;;10.88;5.47;;;;;;;;;;5020908;28;20217;-73
2023/06/25 10:24:49;;;;;;;7.50;4.95;;;;;;;;;;5040433;28;20222;-73
2023/06/25 10:27:23;;;;;;;6.88;5.10;;;;;;;;;;5019685;28;20735;-73
2023/06/25 10:29:49;;;;;;;7.60;4.78;;;;;;;;;;5019302;28;20308;-72
2023/06/25 10:32:17;;;;;;;7.35;5.18;;;;;;;;;;5024920;28;20358;-73
2023/06/25 10:34:43;;;;;;;9.50;5.03;;;;;;;;;;5016950;28;20234;-73
2023/06/25 10:37:08;;;;;;;7.20;4.90;;;;;;;;;;5022474;28;20308;-72
2023/06/25 10:39:40;;;;;;;10.65;5.05;;;;;;;;;;5016861;28;20236;-73
2023/06/25 10:42:05;;;;;;;9.05;5.60;;;;;;;;;;5017107;28;20220;-73
2023/06/25 10:44:31;;;;;;;7.30;4.93;;;;;;;;;;5016541;28;21040;-73
2023/06/25 10:47:09;;;;;;;8.18;5.30;;;;;;;;;;5019571;28;20245;-73
2023/06/25 10:49:34;;;;;;;7.65;5.47;;;;;;;;;;5016393;28;20261;-73
2023/06/25 10:52:00;;;;;;;8.68;4.88;;;;;;;;;;5022109;28;20248;-73
2023/06/25 10:54:26;;;;;;;7.70;5.25;;;;;;;;;;5015460;28;20222;-74
2023/06/25 10:57:07;;;;;;;8.40;5.20;;;;;;;;;;5015853;28;20218;-72
2023/06/25 10:59:33;;;;;;;8.35;5.28;;;;;;;;;;5013586;28;20230;-73
2023/06/25 11:02:18;;;;;;;9.82;5.68;;;;;;;;;;5016814;28;20695;-72
2023/06/25 11:04:53;;;;;;;8.50;5.05;;;;;;;;;;5012103;28;22097;-73
2023/06/25 11:07:19;;;;;;;6.72;4.90;;;;;;;;;;5018033;28;20697;-74
2023/06/25 11:09:46;;;;;;;9.15;5.93;;;;;;;;;;5033391;28;20256;-73
2023/06/25 11:12:11;;;;;;;7.65;4.53;;;;;;;;;;5004000;28;20711;-73
2023/06/25 11:14:36;;;;;;;9.05;5.35;;;;;;;;;;5033291;28;20225;-73
2023/06/25 11:17:02;;;;;;;7.65;4.90;;;;;;;;;;5004991;28;20222;-72
2023/06/25 11:19:28;;;;;;;7.03;4.55;;;;;;;;;;5036198;28;20222;-73
2023/06/25 11:21:54;;;;;;;6.38;4.50;;;;;;;;;;5014133;28;20608;-72
2023/06/25 11:24:20;;;;;;;6.05;4.53;;;;;;;;;;5036075;28;20226;-72
2023/06/25 11:26:45;;;;;;;6.43;4.40;;;;;;;;;;5033742;28;20660;-73
2023/06/25 11:29:10;;;;;;;9.18;4.50;;;;;;;;;;5010136;28;20217;-72
2023/06/25 11:31:48;;;;;;;6.97;4.40;;;;;;;;;;5034185;28;21006;-73
2023/06/25 11:34:20;;;;;;;6.95;4.35;;;;;;;;;;5016280;28;20296;-73
2023/06/25 11:36:47;;;;;;;7.78;4.50;;;;;;;;;;5005219;28;20225;-73
2023/06/25 11:39:12;;;;;;;8.45;4.57;;;;;;;;;;5018472;28;20313;-73
2023/06/25 11:41:37;;;;;;;6.45;4.70;;;;;;;;;;5024816;28;20321;-73
2023/06/25 11:44:03;;;;;;;8.10;5.03;;;;;;;;;;5017613;28;20221;-76
2023/06/25 11:46:28;;;;;;;8.30;4.75;;;;;;;;;;4999478;28;20221;-74
2023/06/25 11:48:54;;;;;;;6.40;4.30;;;;;;;;;;5013607;28;20293;-77
2023/06/25 11:51:19;;;;;;;6.55;4.60;;;;;;;;;;5004838;28;20221;-74
2023/06/25 11:53:44;;;;;;;6.63;4.80;;;;;;;;;;4996384;28;20252;-74
2023/06/25 11:56:10;;;;;;;7.97;4.82;;;;;;;;;;5035204;28;20209;-74
2023/06/25 11:58:35;;;;;;;7.20;4.53;;;;;;;;;;5020366;28;20234;-77
2023/06/25 12:01:00;;;;;;;6.63;4.30;;;;;;;;;;5033732;28;20228;-75
2023/06/25 12:03:25;;;;;;;10.10;4.57;;;;;;;;;;5033458;28;20221;-75
2023/06/25 12:05:51;;;;;;;7.13;4.13;;;;;;;;;;5017912;28;20236;-76
2023/06/25 12:08:16;;;;;;;8.80;4.38;;;;;;;;;;5003028;28;20222;-76
2023/06/25 12:10:41;;;;;;;8.18;4.13;;;;;;;;;;5013622;28;20234;-76
2023/06/25 12:13:07;;;;;;;7.55;4.22;;;;;;;;;;5033068;28;20219;-76
2023/06/25 12:15:32;;;;;;;7.43;4.30;;;;;;;;;;5009676;28;20257;-76
2023/06/25 12:17:57;;;;;;;9.30;4.10;;;;;;;;;;5036461;28;20312;-76
2023/06/25 12:20:23;;;;;;;7.45;3.90;;;;;;;;;;5010546;28;20238;-76
2023/06/25 12:22:48;;;;;;;9.77;4.10;;;;;;;;;;5019117;28;20214;-75
2023/06/25 12:25:13;;;;;;;6.68;4.00;;;;;;;;;;5032434;28;20248;-75
2023/06/25 12:27:39;;;;;;;5.70;3.90;;;;;;;;;;4981203;28;20247;-76
2023/06/25 12:30:05;;;;;;;7.85;4.25;;;;;;;;;;4985285;28;20274;-76
2023/06/25 12:32:30;;;;;;;6.32;4.00;;;;;;;;;;4984861;28;20277;-75
2023/06/25 12:34:55;;;;;;;10.07;3.63;;;;;;;;;;4992590;28;20231;-75
2023/06/25 12:37:21;;;;;;;8.18;3.60;;;;;;;;;;4992268;28;20215;-76
2023/06/25 12:39:46;;;;;;;6.18;3.97;;;;;;;;;;4977438;28;20233;-75
2023/06/25 12:42:11;;;;;;;7.28;4.10;;;;;;;;;;4995093;28;20234;-75
2023/06/25 12:44:37;;;;;;;9.48;4.15;;;;;;;;;;4974854;28;20686;-75
2023/06/25 12:47:02;;;;;;;8.15;4.40;;;;;;;;;;4985151;28;20333;-75
2023/06/25 12:49:27;;;;;;;10.00;4.10;;;;;;;;;;4988736;28;20231;-78
2023/06/25 12:51:52;;;;;;;8.90;3.70;;;;;;;;;;4999628;28;20241;-76
2023/06/25 12:54:18;;;;;;;7.88;3.97;;;;;;;;;;4977256;28;20318;-76
2023/06/25 12:56:43;;;;;;;7.25;3.50;;;;;;;;;;4984554;28;20969;-76
2023/06/25 12:59:08;;;;;;;6.55;3.17;;;;;;;;;;4990897;28;20667;-77
2023/06/25 13:01:34;;;;;;;5.55;3.38;;;;;;;;;;4992714;28;20315;-75
2023/06/25 13:03:59;;;;;;;6.15;3.10;;;;;;;;;;4991870;28;20218;-73
2023/06/25 13:06:24;;;;;;;7.10;3.20;;;;;;;;;;4993341;28;20225;-74
2023/06/25 13:08:50;;;;;;;7.85;3.10;;;;;;;;;;4992253;28;20234;-73
2023/06/25 13:11:15;;;;;;;8.35;2.80;;;;;;;;;;4992340;28;20309;-74
2023/06/25 13:13:40;;;;;;;7.50;2.80;;;;;;;;;;4986968;28;20224;-73
2023/06/25 13:16:06;;;;;;;9.55;3.03;;;;;;;;;;4989002;28;20300;-72
2023/06/25 13:18:31;;;;;;;10.85;3.10;;;;;;;;;;4991584;28;20288;-72
2023/06/25 13:20:56;;;;;;;8.63;2.97;;;;;;;;;;4976483;28;20237;-72
2023/06/25 13:23:22;;;;;;;6.95;2.95;;;;;;;;;;4974624;28;20242;-72
2023/06/25 13:25:47;;;;;;;11.98;2.92;;;;;;;;;;4992679;28;20346;-73
2023/06/25 13:28:12;;;;;;;9.27;3.00;;;;;;;;;;4991969;28;20255;-75
2023/06/25 13:30:37;;;;;;;7.35;2.55;;;;;;;;;;4988544;28;20223;-71
2023/06/25 13:33:04;;;;;;;10.18;2.85;;;;;;;;;;4992998;28;20246;-72
2023/06/25 13:35:30;;;;;;;5.95;3.00;;;;;;;;;;4977022;28;20921;-73
2023/06/25 13:37:57;;;;;;;8.40;2.90;;;;;;;;;;4994306;28;20234;-74
2023/06/25 13:40:23;;;;;;;8.25;3.00;;;;;;;;;;4980158;28;20230;-73
2023/06/25 13:42:48;;;;;;;8.30;3.70;;;;;;;;;;4990031;28;20731;-73
2023/06/25 13:45:15;;;;;;;10.95;3.60;;;;;;;;;;4992702;28;20756;-73
2023/06/25 13:47:40;;;;;;;10.48;3.70;;;;;;;;;;4978729;28;20311;-74
2023/06/25 13:50:05;;;;;;;8.27;4.00;;;;;;;;;;4992145;28;20318;-73
2023/06/25 13:52:31;;;;;;;10.70;4.65;;;;;;;;;;4991034;28;20253;-74
2023/06/25 13:54:56;;;;;;;7.18;4.43;;;;;;;;;;4993241;28;20295;-73
2023/06/25 13:57:21;;;;;;;11.02;4.40;;;;;;;;;;4994625;28;20238;-73
2023/06/25 13:59:47;;;;;;;7.88;4.55;;;;;;;;;;4998789;28;20974;-73
2023/06/25 14:02:12;;;;;;;8.93;4.60;;;;;;;;;;4993021;28;20222;-72
2023/06/25 14:04:37;;;;;;;10.18;4.78;;;;;;;;;;4985789;28;20259;-73
2023/06/25 14:07:03;;;;;;;12.57;5.07;;;;;;;;;;4977935;28;20250;-73
2023/06/25 14:09:28;;;;;;;12.82;5.93;;;;;;;;;;5000011;28;21150;-73
2023/06/25 14:11:53;;;;;;;13.48;6.47;;;;;;;;;;4992629;28;20739;-73
2023/06/25 14:14:18;;;;;;;12.68;6.20;;;;;;;;;;5000575;28;20265;-72
2023/06/25 14:16:44;;;;;;;12.65;5.80;;;;;;;;;;4988220;28;20223;-71
2023/06/25 14:19:10;;;;;;;11.52;5.72;;;;;;;;;;4991276;28;20225;-71
2023/06/25 14:21:35;;;;;;;12.23;5.82;;;;;;;;;;4991041;28;20639;-72
2023/06/25 14:24:00;;;;;;;12.70;6.28;;;;;;;;;;4974006;28;20224;-71